createdAt,value
2022-09-30T00:01:29.793Z,23.00
2022-09-30T00:03:57.934Z,23.00
2022-09-30T00:06:29.817Z,23.10
2022-09-30T00:08:58.201Z,23.10
2022-09-30T00:11:29.057Z,23.00
2022-09-30T00:13:57.793Z,23.00
2022-09-30T00:16:27.521Z,23.00
2022-09-30T00:18:56.331Z,23.00
2022-09-30T00:21:23.953Z,23.10
2022-09-30T00:23:51.475Z,23.00
2022-09-30T00:26:21.093Z,23.10
2022-09-30T00:28:53.701Z,23.00
2022-09-30T00:31:22.072Z,23.10
2022-09-30T00:34:09.533Z,23.00
2022-09-30T00:36:45.437Z,23.00
2022-09-30T00:39:19.925Z,23.10
2022-09-30T00:41:50.057Z,23.10
2022-09-30T00:44:51.001Z,23.00
2022-09-30T00:47:49.344Z,23.10
2022-09-30T00:50:34.511Z,23.00
2022-09-30T00:53:08.651Z,23.00
2022-09-30T00:55:59.339Z,23.00
2022-09-30T00:58:49.938Z,23.00
2022-09-30T01:01:18.487Z,23.00
2022-09-30T01:03:51.772Z,23.00
2022-09-30T01:06:22.005Z,23.00
2022-09-30T01:08:49.344Z,23.00
2022-09-30T01:11:17.070Z,23.00
2022-09-30T01:13:49.317Z,23.00
2022-09-30T01:16:43.317Z,23.00
2022-09-30T01:19:47.260Z,23.00
2022-09-30T01:22:29.944Z,23.00
2022-09-30T01:25:31.367Z,23.00
2022-09-30T01:28:38.133Z,23.00
2022-09-30T01:31:44.923Z,23.00
2022-09-30T01:34:27.247Z,23.00
2022-09-30T01:37:23.634Z,23.00
2022-09-30T01:40:24.057Z,23.00
2022-09-30T01:43:01.883Z,23.00
2022-09-30T01:45:38.173Z,23.00
2022-09-30T01:48:39.380Z,23.00
2022-09-30T01:51:20.708Z,23.00
2022-09-30T01:53:57.109Z,23.00
2022-09-30T01:56:41.662Z,23.00
2022-09-30T01:59:23.611Z,23.00
2022-09-30T02:01:58.985Z,23.00
2022-09-30T02:04:34.909Z,23.00
2022-09-30T02:07:07.960Z,22.90
2022-09-30T02:09:49.395Z,23.00
2022-09-30T02:12:21.005Z,23.00
2022-09-30T02:15:08.506Z,23.00
2022-09-30T02:17:46.910Z,23.00
2022-09-30T02:20:26.476Z,22.90
2022-09-30T02:23:01.511Z,22.90
2022-09-30T02:25:38.528Z,22.90
2022-09-30T02:28:08.792Z,22.90
2022-09-30T02:30:39.313Z,22.90
2022-09-30T02:33:12.771Z,23.00
2022-09-30T02:35:49.083Z,23.00
2022-09-30T02:38:19.942Z,23.00
2022-09-30T02:40:53.132Z,23.00
2022-09-30T02:43:21.721Z,23.00
2022-09-30T02:46:22.148Z,23.00
2022-09-30T02:48:52.099Z,23.00
2022-09-30T02:51:27.508Z,23.00
2022-09-30T02:54:20.491Z,23.00
2022-09-30T02:57:18.864Z,23.00
2022-09-30T02:59:49.033Z,23.00
2022-09-30T03:02:16.199Z,23.00
2022-09-30T03:04:45.676Z,23.00
2022-09-30T03:07:13.259Z,23.00
2022-09-30T03:09:40.850Z,23.00
2022-09-30T03:12:40.093Z,23.00
2022-09-30T03:15:46.843Z,23.00
2022-09-30T03:18:27.832Z,23.00
2022-09-30T03:21:27.241Z,22.90
2022-09-30T03:24:32.038Z,23.00
2022-09-30T03:27:40.340Z,23.00
2022-09-30T03:30:11.805Z,22.90
2022-09-30T03:33:10.171Z,22.90
2022-09-30T03:36:02.119Z,22.90
2022-09-30T03:38:56.363Z,22.90
2022-09-30T03:41:32.031Z,22.90
2022-09-30T03:44:19.075Z,23.00
2022-09-30T03:46:51.948Z,22.90
2022-09-30T03:49:32.210Z,23.00
2022-09-30T03:52:00.451Z,23.00
2022-09-30T03:54:27.539Z,22.90
2022-09-30T03:56:54.612Z,22.90
2022-09-30T03:59:28.972Z,22.90
2022-09-30T04:01:57.765Z,23.00
2022-09-30T04:04:25.209Z,22.90
2022-09-30T04:06:52.244Z,22.90
2022-09-30T04:09:19.502Z,22.90
2022-09-30T04:11:46.593Z,22.90
2022-09-30T04:14:13.604Z,22.90
2022-09-30T04:16:40.810Z,22.90
2022-09-30T04:19:07.901Z,22.90
2022-09-30T04:21:34.953Z,22.90
2022-09-30T04:24:02.066Z,22.90
2022-09-30T04:26:29.171Z,22.90
2022-09-30T04:28:58.758Z,22.90
2022-09-30T04:31:26.019Z,22.90
2022-09-30T04:33:52.991Z,22.90
2022-09-30T04:36:20.579Z,22.90
2022-09-30T04:38:47.575Z,22.90
2022-09-30T04:41:17.464Z,22.90
2022-09-30T04:43:47.072Z,22.90
2022-09-30T04:46:16.040Z,22.90
2022-09-30T04:48:46.064Z,22.90
2022-09-30T04:51:15.131Z,22.90
2022-09-30T04:53:42.818Z,22.90
2022-09-30T04:56:10.677Z,23.00
2022-09-30T04:58:37.925Z,22.90
2022-09-30T05:01:10.327Z,22.90
2022-09-30T05:03:38.429Z,23.00
2022-09-30T05:06:06.605Z,22.90
2022-09-30T05:08:33.984Z,22.90
2022-09-30T05:11:04.706Z,22.90
2022-09-30T05:13:34.355Z,22.90
2022-09-30T05:16:02.351Z,22.90
2022-09-30T05:18:30.200Z,22.90
2022-09-30T05:20:58.465Z,22.90
2022-09-30T05:23:26.978Z,22.90
2022-09-30T05:25:54.291Z,23.00
2022-09-30T05:28:21.360Z,22.90
2022-09-30T05:34:29.153Z,23.00
2022-09-30T05:36:56.882Z,23.00
2022-09-30T05:39:23.948Z,23.00
2022-09-30T05:54:17.132Z,23.00
2022-09-30T05:56:44.317Z,23.10
2022-09-30T05:59:11.324Z,23.10
2022-09-30T06:01:38.890Z,23.10
2022-09-30T06:04:05.939Z,23.10
2022-09-30T06:06:32.972Z,23.20
2022-09-30T06:09:00.428Z,23.20
2022-09-30T06:11:27.561Z,23.30
2022-09-30T06:14:20.041Z,23.30
2022-09-30T06:16:47.395Z,23.30
2022-09-30T06:19:14.603Z,23.40
2022-09-30T06:21:41.831Z,23.40
2022-09-30T06:24:13.083Z,23.40
2022-09-30T06:27:18.953Z,23.40
2022-09-30T06:29:45.951Z,23.50
2022-09-30T06:32:13.284Z,23.50
2022-09-30T06:34:40.274Z,23.50
2022-09-30T06:40:39.268Z,23.60
2022-09-30T06:43:06.820Z,23.60
2022-09-30T06:46:30.973Z,23.60
2022-09-30T06:49:14.550Z,23.70
2022-09-30T06:56:18.734Z,23.70
2022-09-30T06:58:46.996Z,23.80
2022-09-30T07:01:15.331Z,23.80
2022-09-30T07:03:45.210Z,23.80
2022-09-30T07:06:14.617Z,23.90
2022-09-30T07:08:41.814Z,23.90
2022-09-30T07:11:17.123Z,23.90
2022-09-30T07:13:46.031Z,23.90
2022-09-30T07:16:19.320Z,24.00
2022-09-30T07:18:46.896Z,24.00
2022-09-30T07:21:16.322Z,24.10
2022-09-30T07:23:48.426Z,24.10
2022-09-30T07:26:18.177Z,24.10
2022-09-30T07:28:46.220Z,24.20
2022-09-30T07:34:09.255Z,24.20
2022-09-30T07:37:18.711Z,24.30
2022-09-30T07:39:48.340Z,24.30
2022-09-30T07:42:22.767Z,24.30
2022-09-30T07:44:52.412Z,24.30
2022-09-30T07:47:21.124Z,24.40
2022-09-30T07:53:29.144Z,24.40
2022-09-30T07:55:56.185Z,24.40
2022-09-30T07:58:23.233Z,24.50
2022-09-30T08:00:50.950Z,24.50
2022-09-30T08:07:26.494Z,24.60
2022-09-30T08:09:53.518Z,24.60
2022-09-30T08:12:20.622Z,24.70
2022-09-30T08:14:47.627Z,24.70
2022-09-30T08:35:06.193Z,25.00
2022-09-30T08:41:53.937Z,25.10
2022-09-30T08:49:16.904Z,25.10
2022-09-30T08:55:54.877Z,25.20
2022-09-30T08:58:28.310Z,25.20
2022-09-30T09:01:06.937Z,25.30
2022-09-30T09:03:34.314Z,25.30
2022-09-30T09:10:24.269Z,25.30
2022-09-30T09:20:38.302Z,25.40
2022-09-30T09:23:10.553Z,25.40
2022-09-30T09:25:38.071Z,25.40
2022-09-30T09:32:30.812Z,25.40
2022-09-30T09:35:02.018Z,25.40
2022-09-30T09:38:14.916Z,25.50
2022-09-30T09:48:15.900Z,25.50
2022-09-30T09:50:56.991Z,25.50
2022-09-30T09:53:53.056Z,25.50
2022-09-30T09:56:22.042Z,25.60
2022-09-30T10:02:32.684Z,25.70
2022-09-30T10:05:18.103Z,25.70
2022-09-30T10:12:17.839Z,25.70
2022-09-30T10:15:13.074Z,25.70
2022-09-30T10:17:40.435Z,25.70
2022-09-30T10:20:32.482Z,25.70
2022-09-30T10:23:18.641Z,25.70
2022-09-30T10:30:18.111Z,25.70
2022-09-30T10:32:45.126Z,25.70
2022-09-30T10:35:23.544Z,25.70
2022-09-30T10:37:54.993Z,25.80
2022-09-30T10:40:27.709Z,25.80
2022-09-30T10:47:36.939Z,25.80
2022-09-30T10:53:03.548Z,25.80
2022-09-30T10:59:31.949Z,25.80
2022-09-30T11:02:16.897Z,25.80
2022-09-30T11:17:33.911Z,25.80
2022-09-30T11:20:15.229Z,25.90
2022-09-30T11:23:00.752Z,25.90
2022-09-30T11:25:47.788Z,25.90
2022-09-30T11:39:11.026Z,26.00
2022-09-30T11:41:48.659Z,26.00
2022-09-30T11:44:35.962Z,26.00
2022-09-30T11:48:18.839Z,25.90
2022-09-30T11:51:25.595Z,26.00
2022-09-30T12:05:46.189Z,26.00
2022-09-30T12:08:27.183Z,26.00
2022-09-30T12:11:00.372Z,26.00
2022-09-30T12:17:20.047Z,26.00
2022-09-30T12:19:51.364Z,25.90
2022-09-30T12:22:36.744Z,25.90
2022-09-30T12:25:12.993Z,25.90
2022-09-30T12:28:45.345Z,25.90
2022-09-30T12:31:42.482Z,25.80
2022-09-30T12:34:49.277Z,25.80
2022-09-30T12:37:56.061Z,25.70
2022-09-30T12:40:51.569Z,25.70
2022-09-30T12:43:59.294Z,25.70
2022-09-30T12:47:03.562Z,25.70
2022-09-30T12:49:33.234Z,25.70
2022-09-30T12:52:21.696Z,25.70
2022-09-30T12:54:57.374Z,25.70
2022-09-30T12:57:31.050Z,25.70
2022-09-30T13:00:05.190Z,25.70
2022-09-30T13:06:23.880Z,25.60
2022-09-30T13:09:21.274Z,25.60
2022-09-30T13:12:13.680Z,25.60
2022-09-30T13:14:45.398Z,25.50
2022-09-30T13:17:26.767Z,25.50
2022-09-30T13:19:59.300Z,25.50
2022-09-30T13:22:42.476Z,25.50
2022-09-30T13:25:15.010Z,25.40
2022-09-30T13:28:05.504Z,25.40
2022-09-30T13:30:34.704Z,25.40
2022-09-30T13:33:26.871Z,25.40
2022-09-30T13:35:59.245Z,25.40
2022-09-30T13:38:40.567Z,25.40
2022-09-30T13:41:24.940Z,25.40
2022-09-30T13:44:07.256Z,25.40
2022-09-30T13:46:54.684Z,25.40
2022-09-30T13:50:01.491Z,25.40
2022-09-30T13:52:35.282Z,25.30
2022-09-30T13:55:11.391Z,25.30
2022-09-30T13:58:05.025Z,25.30
2022-09-30T14:00:53.372Z,25.30
2022-09-30T14:04:00.269Z,25.30
2022-09-30T14:07:00.765Z,25.30
2022-09-30T14:10:09.646Z,25.30
2022-09-30T14:13:03.888Z,25.20
2022-09-30T14:16:10.693Z,25.20
2022-09-30T14:19:02.973Z,25.20
2022-09-30T14:21:53.425Z,25.10
2022-09-30T14:24:27.189Z,25.10
2022-09-30T14:27:16.691Z,25.10
2022-09-30T14:30:09.720Z,25.10
2022-09-30T14:32:57.883Z,25.10
2022-09-30T14:35:34.402Z,25.10
2022-09-30T14:38:18.310Z,25.00
2022-09-30T14:40:56.454Z,25.00
2022-09-30T14:43:29.027Z,25.00
2022-09-30T14:45:58.135Z,25.00
2022-09-30T14:48:33.514Z,25.00
2022-09-30T14:51:14.405Z,24.90
2022-09-30T14:53:52.741Z,24.90
2022-09-30T14:56:22.924Z,24.90
2022-09-30T14:58:53.311Z,24.90
2022-09-30T15:01:26.103Z,24.90
2022-09-30T15:03:58.039Z,24.90
2022-09-30T15:06:28.170Z,24.80
2022-09-30T15:09:05.133Z,24.90
2022-09-30T15:11:39.354Z,24.80
2022-09-30T15:14:14.113Z,24.80
2022-09-30T15:16:53.624Z,24.80
2022-09-30T15:19:26.033Z,24.80
2022-09-30T15:21:55.970Z,24.80
2022-09-30T15:24:25.844Z,24.80
2022-09-30T15:26:54.158Z,24.80
2022-09-30T15:29:21.226Z,24.70
2022-09-30T15:31:55.524Z,24.70
2022-09-30T15:34:25.617Z,24.70
2022-09-30T15:37:07.031Z,24.70
2022-09-30T15:40:06.039Z,24.70
2022-09-30T15:42:45.702Z,24.70
2022-09-30T15:45:35.845Z,24.60
2022-09-30T15:48:33.576Z,24.60
2022-09-30T15:51:01.579Z,24.60
2022-09-30T15:53:47.956Z,24.60
2022-09-30T15:56:36.678Z,24.60
2022-09-30T15:59:09.526Z,24.50
2022-09-30T16:01:39.858Z,24.50
2022-09-30T16:04:24.489Z,24.50
2022-09-30T16:06:57.533Z,24.50
2022-09-30T16:09:35.719Z,24.50
2022-09-30T16:12:15.210Z,24.50
2022-09-30T16:15:07.180Z,24.40
2022-09-30T16:17:38.157Z,24.40
2022-09-30T16:20:22.418Z,24.40
2022-09-30T16:22:55.143Z,24.40
2022-09-30T16:25:28.404Z,24.40
2022-09-30T16:28:00.733Z,24.40
2022-09-30T16:30:28.983Z,24.30
2022-09-30T16:32:59.725Z,24.30
2022-09-30T16:35:28.722Z,24.30
2022-09-30T16:38:04.778Z,24.30
2022-09-30T16:40:33.280Z,24.30
2022-09-30T16:43:03.264Z,24.30
2022-09-30T16:45:33.131Z,24.30
2022-09-30T16:48:01.898Z,24.30
2022-09-30T16:50:53.490Z,24.30
2022-09-30T16:53:20.604Z,24.30
2022-09-30T16:55:48.335Z,24.20
2022-09-30T16:58:16.232Z,24.30
2022-09-30T17:00:47.286Z,24.20
2022-09-30T17:03:16.958Z,24.10
2022-09-30T17:05:46.016Z,24.20
2022-09-30T17:08:16.275Z,24.20
2022-09-30T17:10:44.073Z,24.10
2022-09-30T17:13:11.118Z,24.10
2022-09-30T17:15:38.111Z,24.10
2022-09-30T17:18:07.717Z,24.10
2022-09-30T17:20:35.388Z,24.00
2022-09-30T17:23:07.123Z,24.00
2022-09-30T17:25:34.728Z,24.00
2022-09-30T17:28:01.941Z,24.00
2022-09-30T17:30:29.072Z,24.00
2022-09-30T17:32:56.068Z,24.00
2022-09-30T17:35:23.098Z,24.00
2022-09-30T17:37:50.189Z,24.00
2022-09-30T17:40:37.371Z,23.90
2022-09-30T17:43:07.444Z,23.90
2022-09-30T17:45:35.872Z,23.90
2022-09-30T17:48:03.227Z,23.90
2022-09-30T17:50:30.279Z,23.90
2022-09-30T17:52:57.480Z,23.90
2022-09-30T17:55:24.796Z,23.80
2022-09-30T17:57:54.284Z,23.80
2022-09-30T18:00:21.566Z,23.80
2022-09-30T18:02:48.680Z,23.80
2022-09-30T18:05:16.974Z,23.80
2022-09-30T18:07:45.760Z,23.80
2022-09-30T18:10:14.011Z,23.80
2022-09-30T18:12:41.099Z,23.80
2022-09-30T18:15:08.802Z,23.70
2022-09-30T18:17:36.329Z,23.70
2022-09-30T18:20:03.539Z,23.70
2022-09-30T18:22:30.619Z,23.70
2022-09-30T18:25:17.516Z,23.70
2022-09-30T18:27:44.593Z,23.70
2022-09-30T18:30:12.097Z,23.70
2022-09-30T18:32:39.963Z,23.70
2022-09-30T18:35:12.190Z,23.70
2022-09-30T18:37:42.395Z,23.70
2022-09-30T18:40:10.172Z,23.70
2022-09-30T18:42:38.003Z,23.70
2022-09-30T18:45:06.703Z,23.70
2022-09-30T18:47:34.036Z,23.60
2022-09-30T18:50:01.122Z,23.60
2022-09-30T18:52:28.176Z,23.60
2022-09-30T18:54:55.319Z,23.60
2022-09-30T18:57:22.353Z,23.60
2022-09-30T18:59:49.339Z,23.60
2022-09-30T19:02:18.225Z,23.60
2022-09-30T19:04:47.437Z,23.60
2022-09-30T19:07:14.957Z,23.60
2022-09-30T19:09:42.228Z,23.60
2022-09-30T19:12:09.234Z,23.60
2022-09-30T19:14:38.069Z,23.60
2022-09-30T19:17:05.057Z,23.60
2022-09-30T19:19:32.482Z,23.60
2022-09-30T19:22:01.491Z,23.60
2022-09-30T19:24:28.640Z,23.60
2022-09-30T19:26:55.771Z,23.60
2022-09-30T19:29:23.690Z,23.60
2022-09-30T19:31:50.874Z,23.60
2022-09-30T19:34:29.822Z,23.60
2022-09-30T19:37:00.060Z,23.60
2022-09-30T19:39:37.631Z,23.50
2022-09-30T19:42:09.402Z,23.50
2022-09-30T19:44:37.033Z,23.50
2022-09-30T19:47:04.029Z,23.50
2022-09-30T19:49:31.247Z,23.50
2022-09-30T19:51:58.219Z,23.50
2022-09-30T19:54:36.999Z,23.50
2022-09-30T19:57:11.074Z,23.50
2022-09-30T19:59:38.123Z,23.50
2022-09-30T20:02:05.270Z,23.50
2022-09-30T20:04:34.297Z,23.50
2022-09-30T20:07:01.584Z,23.40
2022-09-30T20:09:28.690Z,23.40
2022-09-30T20:11:55.730Z,23.40
2022-09-30T20:14:42.630Z,23.50
2022-09-30T20:17:09.684Z,23.40
2022-09-30T20:19:36.759Z,23.40
2022-09-30T20:22:04.862Z,23.40
2022-09-30T20:24:32.145Z,23.40
2022-09-30T20:26:59.248Z,23.40
2022-09-30T20:29:27.127Z,23.40
2022-09-30T20:31:54.264Z,23.40
2022-09-30T20:34:21.390Z,23.40
2022-09-30T20:36:48.576Z,23.40
2022-09-30T20:39:15.636Z,23.40
2022-09-30T20:41:42.731Z,23.40
2022-09-30T20:44:18.974Z,23.40
2022-09-30T20:46:46.358Z,23.40
2022-09-30T20:49:13.433Z,23.30
2022-09-30T20:51:40.478Z,23.30
2022-09-30T20:54:07.625Z,23.30
2022-09-30T20:56:49.988Z,23.30
2022-09-30T20:59:21.720Z,23.30
2022-09-30T21:01:48.828Z,23.30
2022-09-30T21:04:15.881Z,23.30
2022-09-30T21:06:42.935Z,23.30
2022-09-30T21:09:12.693Z,23.30
2022-09-30T21:11:42.502Z,23.30
2022-09-30T21:14:09.616Z,23.30
2022-09-30T21:16:36.708Z,23.30
2022-09-30T21:19:03.939Z,23.30
2022-09-30T21:21:31.242Z,23.30
2022-09-30T21:24:00.002Z,23.40
2022-09-30T21:26:27.504Z,23.30
2022-09-30T21:28:54.543Z,23.30
2022-09-30T21:31:25.001Z,23.30
2022-09-30T21:33:53.850Z,23.30
2022-09-30T21:36:21.427Z,23.30
2022-09-30T21:38:49.862Z,23.30
2022-09-30T21:41:17.891Z,23.30
2022-09-30T21:43:44.988Z,23.30
2022-09-30T21:46:14.850Z,23.30
2022-09-30T21:48:42.717Z,23.30
2022-09-30T21:51:10.286Z,23.30
2022-09-30T21:53:39.065Z,23.30
2022-09-30T21:56:07.581Z,23.30
2022-09-30T21:58:34.836Z,23.30
2022-09-30T22:01:05.103Z,23.30
2022-09-30T22:03:37.403Z,23.30
2022-09-30T22:06:07.574Z,23.30
2022-09-30T22:08:40.833Z,23.30
2022-09-30T22:11:11.348Z,23.30
2022-09-30T22:13:40.956Z,23.30
2022-09-30T22:16:08.537Z,23.30
2022-09-30T22:18:36.134Z,23.20
2022-09-30T22:21:07.062Z,23.30
2022-09-30T22:23:34.411Z,23.20
2022-09-30T22:26:14.158Z,23.20
2022-09-30T22:28:41.221Z,23.20
2022-09-30T22:31:20.418Z,23.20
2022-09-30T22:34:12.597Z,23.20
2022-09-30T22:36:59.729Z,23.20
2022-09-30T22:39:27.583Z,23.20
2022-09-30T22:41:56.275Z,23.20
2022-09-30T22:44:25.781Z,23.20
2022-09-30T22:46:53.675Z,23.20
2022-09-30T22:49:21.508Z,23.20
2022-09-30T22:51:53.128Z,23.20
2022-09-30T22:54:21.022Z,23.20
2022-09-30T22:56:51.929Z,23.20
2022-09-30T22:59:20.571Z,23.20
2022-09-30T23:01:49.346Z,23.10
2022-09-30T23:04:17.583Z,23.20
2022-09-30T23:06:48.479Z,23.10
2022-09-30T23:09:16.351Z,23.10
2022-09-30T23:11:44.530Z,23.10
2022-09-30T23:14:12.314Z,23.20
2022-09-30T23:16:39.536Z,23.20
2022-09-30T23:19:06.590Z,23.20
2022-09-30T23:21:34.367Z,23.20
2022-09-30T23:24:02.126Z,23.20
2022-09-30T23:26:30.128Z,23.20
2022-09-30T23:28:59.100Z,23.20
2022-09-30T23:31:27.017Z,23.20
2022-09-30T23:33:56.600Z,23.20
2022-09-30T23:36:32.363Z,23.20
2022-09-30T23:39:05.312Z,23.20
2022-09-30T23:41:34.447Z,23.20
2022-09-30T23:44:01.924Z,23.10
2022-09-30T23:46:29.003Z,23.20
2022-09-30T23:48:56.093Z,23.10
2022-09-30T23:51:23.589Z,23.10
2022-09-30T23:53:51.483Z,23.10
2022-09-30T23:56:19.379Z,23.20
2022-09-30T23:58:47.591Z,23.10
